KMGE/MGE METAR and TAF weather

Enter ICAO airport designator
Station Type Date Time Source
KMGE METAR 2018/12/13 06:56 UTC NOAA

KMGE 130656Z AUTO 00000KT 10SM CLR 02/M01 A3018 RMK AO2 SLP226 T00201006 $


Station Type Date Time Source
KMGE Decoded METAR 2018/12/13 06:56 UTC NOAA

Marietta / Dobbins Air Force Base, GA, United States (KMGE) 33-55N 084-31W 326M
Dec 13, 2018 - 01:56 AM EST / 2018.12.13 0656 UTC
Wind: Calm:0
Visibility: 10 mile(s):0
Sky conditions: clear
Temperature: 35.6 F (2.0 C)
Dew Point: 30.9 F (-0.6 C)
Relative Humidity: 82%
Pressure (altimeter): 30.18 in. Hg (1022 hPa)
ob: KMGE 130656Z AUTO 00000KT 10SM CLR 02/M01 A3018 RMK AO2 SLP226 T00201006
cycle: 7

Station Type Date Time Source
KMGE TAF 2018/12/13 06:12 UTC NOAA

TAF TAF KMGE 130600Z 1306/1412 12003KT 9999 BKN150 OVC200 QNH3015INS
BECMG 1323/1324 09006KT 9999 SCT015 OVC100 QNH3013INS
BECMG 1405/1406 09010KT 9999 -RA SCT008 BKN015 QNH3002INS TX11/1321Z TN01/1312Z


Example: see airport list